createdAt,value
2023-04-27T00:00:38.551Z,10.08
2023-04-27T00:03:12.289Z,10.45
2023-04-27T00:05:45.658Z,10.36
2023-04-27T00:08:18.858Z,10.49
2023-04-27T00:10:52.286Z,10.17
2023-04-27T00:13:25.078Z,10.02
2023-04-27T00:16:01.006Z,10.08
2023-04-27T00:18:34.189Z,10.10
2023-04-27T00:21:07.775Z,9.91
2023-04-27T00:23:40.770Z,9.91
2023-04-27T00:26:13.552Z,10.02
2023-04-27T00:28:46.954Z,9.97
2023-04-27T00:31:21.908Z,9.90
2023-04-27T00:33:54.637Z,9.86
2023-04-27T00:36:27.732Z,9.56
2023-04-27T00:39:00.759Z,9.83
2023-04-27T00:41:33.802Z,9.87
2023-04-27T00:44:07.088Z,9.86
2023-04-27T00:46:41.517Z,9.80
2023-04-27T00:49:14.848Z,9.54
2023-04-27T00:51:47.724Z,9.56
2023-04-27T00:54:21.267Z,9.62
2023-04-27T00:56:54.457Z,9.58
2023-04-27T00:59:27.290Z,9.74
2023-04-27T01:02:01.956Z,9.81
2023-04-27T01:04:37.051Z,9.59
2023-04-27T01:07:10.241Z,9.47
2023-04-27T01:09:43.244Z,9.59
2023-04-27T01:12:15.988Z,9.68
2023-04-27T01:14:48.836Z,9.46
2023-04-27T01:17:24.901Z,9.37
2023-04-27T01:19:59.704Z,9.54
2023-04-27T01:22:32.519Z,9.47
2023-04-27T01:25:07.998Z,9.39
2023-04-27T01:27:42.153Z,9.49
2023-04-27T01:30:16.054Z,9.66
2023-04-27T01:32:48.957Z,9.49
2023-04-27T01:35:21.795Z,9.55
2023-04-27T01:37:54.615Z,9.63
2023-04-27T01:40:29.445Z,9.84
2023-04-27T01:43:02.302Z,9.63
2023-04-27T01:45:35.410Z,9.59
2023-04-27T01:48:08.447Z,9.58
2023-04-27T01:50:41.416Z,9.78
2023-04-27T01:53:14.488Z,9.62
2023-04-27T01:55:48.725Z,9.85
2023-04-27T01:58:21.809Z,9.83
2023-04-27T02:00:55.115Z,9.66
2023-04-27T02:03:28.456Z,9.63
2023-04-27T02:06:01.702Z,9.67
2023-04-27T02:08:35.385Z,9.58
2023-04-27T02:11:09.540Z,9.63
2023-04-27T02:13:42.413Z,9.69
2023-04-27T02:16:15.771Z,9.51
2023-04-27T02:18:49.271Z,9.46
2023-04-27T02:21:22.503Z,9.61
2023-04-27T02:23:55.264Z,9.69
2023-04-27T02:26:29.704Z,9.23
2023-04-27T02:29:03.825Z,9.41
2023-04-27T02:31:37.696Z,9.51
2023-04-27T02:34:10.612Z,9.36
2023-04-27T02:36:43.639Z,9.39
2023-04-27T02:39:17.566Z,9.37
2023-04-27T02:41:51.867Z,9.41
2023-04-27T02:44:24.904Z,9.46
2023-04-27T02:46:58.069Z,9.38
2023-04-27T02:49:31.048Z,9.37
2023-04-27T02:52:04.496Z,9.38
2023-04-27T02:54:37.389Z,9.21
2023-04-27T02:57:11.542Z,9.43
2023-04-27T02:59:44.344Z,9.53
2023-04-27T03:02:18.148Z,9.46
2023-04-27T03:04:53.840Z,9.37
2023-04-27T03:07:26.803Z,9.39
2023-04-27T03:09:59.724Z,9.21
2023-04-27T03:12:34.023Z,9.63
2023-04-27T03:15:07.879Z,9.80
2023-04-27T03:17:41.072Z,9.49
2023-04-27T03:20:14.145Z,9.63
2023-04-27T03:22:46.942Z,9.29
2023-04-27T03:25:19.942Z,9.16
2023-04-27T03:27:54.126Z,9.43
2023-04-27T03:30:27.199Z,9.47
2023-04-27T03:33:01.156Z,9.24
2023-04-27T03:35:34.060Z,9.45
2023-04-27T03:38:06.850Z,9.21
2023-04-27T03:40:39.834Z,9.28
2023-04-27T03:43:14.473Z,9.24
2023-04-27T03:45:47.868Z,9.46
2023-04-27T03:48:21.847Z,9.29
2023-04-27T03:50:54.565Z,9.17
2023-04-27T03:53:27.464Z,9.24
2023-04-27T03:56:00.894Z,9.35
2023-04-27T03:58:35.170Z,9.53
2023-04-27T04:01:10.203Z,9.47
2023-04-27T04:03:43.704Z,9.27
2023-04-27T04:06:16.684Z,9.15
2023-04-27T04:08:49.760Z,9.29
2023-04-27T04:11:23.137Z,9.20
2023-04-27T04:13:57.320Z,9.18
2023-04-27T04:16:30.445Z,9.32
2023-04-27T04:19:03.694Z,9.18
2023-04-27T04:21:36.548Z,9.29
2023-04-27T04:24:10.307Z,9.20
2023-04-27T04:26:44.149Z,9.34
2023-04-27T04:29:18.315Z,9.31
2023-04-27T04:31:51.392Z,9.30
2023-04-27T04:34:25.127Z,9.32
2023-04-27T04:36:58.391Z,9.40
2023-04-27T04:39:31.937Z,9.40
2023-04-27T04:42:05.520Z,9.51
2023-04-27T04:44:40.182Z,9.73
2023-04-27T04:47:13.350Z,9.53
2023-04-27T04:49:46.602Z,9.51
2023-04-27T04:52:19.356Z,9.59
2023-04-27T04:54:52.952Z,9.56
2023-04-27T04:57:25.947Z,9.48
2023-04-27T05:00:00.309Z,9.53
2023-04-27T05:02:33.577Z,9.62
2023-04-27T05:05:06.988Z,9.78
2023-04-27T05:07:39.898Z,9.72
2023-04-27T05:10:12.705Z,9.76
2023-04-27T05:12:45.722Z,9.77
2023-04-27T05:15:20.217Z,9.66
2023-04-27T05:17:54.373Z,9.75
2023-04-27T05:20:27.459Z,9.59
2023-04-27T05:23:00.371Z,9.99
2023-04-27T05:25:33.282Z,9.65
2023-04-27T05:28:06.153Z,9.94
2023-04-27T05:30:40.462Z,10.01
2023-04-27T05:33:13.698Z,9.84
2023-04-27T05:35:46.815Z,9.89
2023-04-27T05:38:19.651Z,10.16
2023-04-27T05:40:55.678Z,9.94
2023-04-27T05:43:28.668Z,9.94
2023-04-27T05:46:02.811Z,10.35
2023-04-27T05:48:35.836Z,10.43
2023-04-27T05:51:09.146Z,10.53
2023-04-27T05:53:42.465Z,11.02
2023-04-27T05:56:15.387Z,10.88
2023-04-27T05:58:48.536Z,11.08
2023-04-27T06:01:23.543Z,11.35
2023-04-27T06:04:01.631Z,11.24
2023-04-27T06:06:35.588Z,11.09
2023-04-27T06:09:08.561Z,10.82
2023-04-27T06:11:41.508Z,10.98
2023-04-27T06:14:15.148Z,10.56
2023-04-27T06:16:49.797Z,10.72
2023-04-27T06:19:22.863Z,10.35
2023-04-27T06:21:56.175Z,10.41
2023-04-27T06:24:29.088Z,10.51
2023-04-27T06:27:02.007Z,10.54
2023-04-27T06:29:35.540Z,10.54
2023-04-27T06:32:09.856Z,10.38
2023-04-27T06:34:42.952Z,10.44
2023-04-27T06:37:17.267Z,10.55
2023-04-27T06:39:50.228Z,11.00
2023-04-27T06:42:23.294Z,10.66
2023-04-27T06:44:56.585Z,10.69
2023-04-27T06:47:31.168Z,10.83
2023-04-27T06:50:04.456Z,10.70
2023-04-27T06:52:37.224Z,10.80
2023-04-27T06:55:10.493Z,10.73
2023-04-27T06:57:43.450Z,10.83
2023-04-27T07:00:16.462Z,10.91
2023-04-27T07:02:51.537Z,11.19
2023-04-27T07:05:25.020Z,11.00
2023-04-27T07:07:58.480Z,11.14
2023-04-27T07:10:32.362Z,11.36
2023-04-27T07:13:07.285Z,11.18
2023-04-27T07:15:42.253Z,11.22
2023-04-27T07:18:16.961Z,11.21
2023-04-27T07:20:49.968Z,11.35
2023-04-27T07:23:23.845Z,11.19
2023-04-27T07:25:57.572Z,11.08
2023-04-27T07:28:30.524Z,10.92
2023-04-27T07:31:05.340Z,11.03
2023-04-27T07:33:40.035Z,11.33
2023-04-27T07:36:13.084Z,10.99
2023-04-27T07:38:45.990Z,11.06
2023-04-27T07:41:20.334Z,10.84
2023-04-27T07:43:53.134Z,11.09
2023-04-27T07:46:26.840Z,10.87
2023-04-27T07:49:01.354Z,11.16
2023-04-27T07:51:34.754Z,10.99
2023-04-27T07:54:07.878Z,10.93
2023-04-27T07:56:41.780Z,11.11
2023-04-27T07:59:15.649Z,11.14
2023-04-27T08:01:49.449Z,11.19
2023-04-27T08:04:24.498Z,11.18
2023-04-27T08:06:58.042Z,11.48
2023-04-27T08:09:32.361Z,11.33
2023-04-27T08:12:05.648Z,11.61
2023-04-27T08:14:38.619Z,11.49
2023-04-27T08:17:12.470Z,11.63
2023-04-27T08:19:46.694Z,11.39
2023-04-27T08:22:19.660Z,11.40
2023-04-27T08:24:52.751Z,11.09
2023-04-27T08:27:25.751Z,10.89
2023-04-27T08:29:58.813Z,10.72
2023-04-27T08:32:32.189Z,10.86
2023-04-27T08:35:07.792Z,10.94
2023-04-27T08:37:40.941Z,10.91
2023-04-27T08:40:14.083Z,11.26
2023-04-27T08:42:56.065Z,11.27
2023-04-27T08:45:29.887Z,11.42
2023-04-27T08:48:02.839Z,11.33
2023-04-27T08:50:39.783Z,11.35
2023-04-27T08:53:19.415Z,10.92
2023-04-27T08:55:52.569Z,10.91
2023-04-27T08:58:37.127Z,11.15
2023-04-27T09:01:10.166Z,11.25
2023-04-27T09:03:43.590Z,11.18
2023-04-27T09:06:18.766Z,11.32
2023-04-27T09:08:52.156Z,11.40
2023-04-27T09:11:30.031Z,11.13
2023-04-27T09:14:03.834Z,11.71
2023-04-27T09:16:36.897Z,11.80
2023-04-27T09:19:10.305Z,11.99
2023-04-27T09:21:48.367Z,12.01
2023-04-27T09:24:21.361Z,12.15
2023-04-27T09:26:54.224Z,12.30
2023-04-27T09:29:33.482Z,12.38
2023-04-27T09:32:17.112Z,12.48
2023-04-27T09:34:50.221Z,12.60
2023-04-27T09:37:27.076Z,12.22
2023-04-27T09:40:03.023Z,12.42
2023-04-27T09:42:37.052Z,12.37
2023-04-27T09:45:12.154Z,12.14
2023-04-27T09:47:45.559Z,12.40
2023-04-27T09:50:21.812Z,12.65
2023-04-27T09:52:56.405Z,12.67
2023-04-27T09:55:32.178Z,12.51
2023-04-27T09:58:12.391Z,12.82
2023-04-27T10:00:49.922Z,12.86
2023-04-27T10:03:24.895Z,12.64
2023-04-27T10:06:27.635Z,12.60
2023-04-27T10:09:06.239Z,12.80
2023-04-27T10:11:40.622Z,12.66
2023-04-27T10:14:18.474Z,12.57
2023-04-27T10:16:53.126Z,12.93
2023-04-27T10:19:27.169Z,13.14
2023-04-27T10:22:03.470Z,13.06
2023-04-27T10:24:38.957Z,13.03
2023-04-27T10:27:14.121Z,12.99
2023-04-27T10:29:48.107Z,13.03
2023-04-27T10:32:23.262Z,12.86
2023-04-27T10:35:06.405Z,13.22
2023-04-27T10:37:40.195Z,13.07
2023-04-27T10:40:17.498Z,13.19
2023-04-27T10:42:50.587Z,12.97
2023-04-27T10:45:30.912Z,12.83
2023-04-27T10:48:04.631Z,13.01
2023-04-27T10:50:38.161Z,13.09
2023-04-27T10:53:12.490Z,13.16
2023-04-27T10:55:47.023Z,13.31
2023-04-27T10:58:24.170Z,13.50
2023-04-27T11:00:58.316Z,13.68
2023-04-27T11:03:31.814Z,13.73
2023-04-27T11:06:07.434Z,13.73
2023-04-27T11:08:45.160Z,13.66
2023-04-27T11:11:19.322Z,13.40
2023-04-27T11:13:52.968Z,13.33
2023-04-27T11:16:26.432Z,13.32
2023-04-27T11:19:05.337Z,13.46
2023-04-27T11:21:38.859Z,13.41
2023-04-27T11:24:13.864Z,13.40
2023-04-27T11:26:54.409Z,13.36
2023-04-27T11:29:27.373Z,13.58
2023-04-27T11:32:00.316Z,13.10
2023-04-27T11:34:37.473Z,13.57
2023-04-27T11:37:18.533Z,13.98
2023-04-27T11:39:52.677Z,13.87
2023-04-27T11:42:28.631Z,13.95
2023-04-27T11:45:06.089Z,13.75
2023-04-27T11:47:41.068Z,13.86
2023-04-27T11:50:14.499Z,14.05
2023-04-27T11:52:50.229Z,14.01
2023-04-27T11:55:24.536Z,13.85
2023-04-27T11:58:00.150Z,14.01
2023-04-27T12:00:33.026Z,13.84
2023-04-27T12:03:06.372Z,13.78
2023-04-27T12:05:48.886Z,13.96
2023-04-27T12:08:22.003Z,14.02
2023-04-27T12:10:54.987Z,13.70
2023-04-27T12:13:30.599Z,13.80
2023-04-27T12:16:03.672Z,14.00
2023-04-27T12:18:36.844Z,14.06
2023-04-27T12:21:10.295Z,13.71
2023-04-27T12:23:43.634Z,13.76
2023-04-27T12:26:16.664Z,13.85
2023-04-27T12:28:51.243Z,13.85
2023-04-27T12:31:27.574Z,13.75
2023-04-27T12:34:01.222Z,13.74
2023-04-27T12:36:34.153Z,13.97
2023-04-27T12:39:16.991Z,13.69
2023-04-27T12:41:50.859Z,13.60
2023-04-27T12:44:25.557Z,13.70
2023-04-27T12:46:58.346Z,14.05
2023-04-27T12:49:31.604Z,14.02
2023-04-27T12:52:04.537Z,13.74
2023-04-27T12:54:37.630Z,13.78
2023-04-27T12:57:10.881Z,13.91
2023-04-27T12:59:46.905Z,13.88
2023-04-27T13:02:19.715Z,13.76
2023-04-27T13:04:52.755Z,13.40
2023-04-27T13:07:25.928Z,13.39
2023-04-27T13:09:58.954Z,13.81
2023-04-27T13:12:32.698Z,13.75
2023-04-27T13:15:07.978Z,13.75
2023-04-27T13:17:43.139Z,14.05
2023-04-27T13:20:17.141Z,13.80
2023-04-27T13:22:50.053Z,13.43
2023-04-27T13:25:23.721Z,13.36
2023-04-27T13:27:58.082Z,13.71
2023-04-27T13:30:33.393Z,13.76
2023-04-27T13:33:21.120Z,13.56
2023-04-27T13:35:55.858Z,13.31
2023-04-27T13:38:28.927Z,13.27
2023-04-27T13:41:01.773Z,13.73
2023-04-27T13:43:35.702Z,13.57
2023-04-27T13:46:10.170Z,13.41
2023-04-27T13:48:43.736Z,13.53
2023-04-27T13:51:16.639Z,14.07
2023-04-27T13:53:49.681Z,13.62
2023-04-27T13:56:22.757Z,13.50
2023-04-27T13:58:56.006Z,13.40
2023-04-27T14:01:30.833Z,13.34
2023-04-27T14:04:04.242Z,13.22
2023-04-27T14:06:37.348Z,13.09
2023-04-27T14:09:10.725Z,13.57
2023-04-27T14:11:55.674Z,13.79
2023-04-27T14:14:29.987Z,13.35
2023-04-27T14:17:04.527Z,13.64
2023-04-27T14:19:37.623Z,13.58
2023-04-27T14:22:10.607Z,13.26
2023-04-27T14:24:43.681Z,13.67
2023-04-27T14:27:17.156Z,13.78
2023-04-27T14:29:50.373Z,13.87
2023-04-27T14:32:24.809Z,13.90
2023-04-27T14:34:57.794Z,13.84
2023-04-27T14:37:30.603Z,13.80
2023-04-27T14:40:05.382Z,13.87
2023-04-27T14:42:38.594Z,13.72
2023-04-27T14:45:12.272Z,14.01
2023-04-27T14:47:46.744Z,14.07
2023-04-27T14:50:19.628Z,14.16
2023-04-27T14:52:52.469Z,13.87
2023-04-27T14:55:25.576Z,14.04
2023-04-27T14:57:58.470Z,14.21
2023-04-27T15:00:31.827Z,14.12
2023-04-27T15:03:06.579Z,13.85
2023-04-27T15:05:39.651Z,13.87
2023-04-27T15:08:12.474Z,13.92
2023-04-27T15:10:45.512Z,13.71
2023-04-27T15:13:18.649Z,13.65
2023-04-27T15:15:54.648Z,13.82
2023-04-27T15:18:29.002Z,13.93
2023-04-27T15:21:01.990Z,13.72
2023-04-27T15:23:37.163Z,13.82
2023-04-27T15:26:10.131Z,13.88
2023-04-27T15:28:44.145Z,13.86
2023-04-27T15:31:17.237Z,13.68
2023-04-27T15:33:53.774Z,13.66
2023-04-27T15:36:28.506Z,13.87
2023-04-27T15:39:01.303Z,13.79
2023-04-27T15:41:34.284Z,13.78
2023-04-27T15:44:07.650Z,13.96
2023-04-27T15:46:40.852Z,13.74
2023-04-27T15:49:15.506Z,13.83
2023-04-27T15:51:49.394Z,13.81
2023-04-27T15:54:22.272Z,13.50
2023-04-27T15:56:54.983Z,13.40
2023-04-27T15:59:28.050Z,13.66
2023-04-27T16:02:01.322Z,13.46
2023-04-27T16:04:35.976Z,13.44
2023-04-27T16:07:09.210Z,13.54
2023-04-27T16:09:42.074Z,13.52
2023-04-27T16:12:14.845Z,13.52
2023-04-27T16:14:47.908Z,13.47
2023-04-27T16:17:21.120Z,13.41
2023-04-27T16:19:55.603Z,13.53
2023-04-27T16:22:28.535Z,13.70
2023-04-27T16:25:02.850Z,13.51
2023-04-27T16:27:35.754Z,13.40
2023-04-27T16:30:09.755Z,13.38
2023-04-27T16:32:43.040Z,13.67
2023-04-27T16:35:17.291Z,13.43
2023-04-27T16:37:50.755Z,13.06
2023-04-27T16:40:23.601Z,13.18
2023-04-27T16:42:56.589Z,13.18
2023-04-27T16:45:29.734Z,12.99
2023-04-27T16:48:03.433Z,12.93
2023-04-27T16:50:37.849Z,12.88
2023-04-27T16:53:13.703Z,12.99
2023-04-27T16:55:47.242Z,13.14
2023-04-27T16:58:20.825Z,13.19
2023-04-27T17:00:54.080Z,12.58
2023-04-27T17:03:27.809Z,12.42
2023-04-27T17:06:03.113Z,12.82
2023-04-27T17:08:35.908Z,12.65
2023-04-27T17:11:09.204Z,12.41
2023-04-27T17:13:42.002Z,12.26
2023-04-27T17:16:16.158Z,12.29
2023-04-27T17:18:49.626Z,12.14
2023-04-27T17:21:25.141Z,12.14
2023-04-27T17:23:57.960Z,12.41
2023-04-27T17:26:32.724Z,12.76
2023-04-27T17:29:05.718Z,12.84
2023-04-27T17:31:39.037Z,13.02
2023-04-27T17:34:12.647Z,12.83
2023-04-27T17:36:47.384Z,12.28
2023-04-27T17:39:22.571Z,12.14
2023-04-27T17:41:55.389Z,12.03
2023-04-27T17:44:28.329Z,12.31
2023-04-27T17:47:01.895Z,12.28
2023-04-27T17:49:35.447Z,12.03
2023-04-27T17:52:09.864Z,12.57
2023-04-27T17:54:43.403Z,12.43
2023-04-27T17:57:16.378Z,12.09
2023-04-27T17:59:50.098Z,12.59
2023-04-27T18:02:23.232Z,12.51
2023-04-27T18:04:57.148Z,12.24
2023-04-27T18:07:31.887Z,12.53
2023-04-27T18:10:05.019Z,12.15
2023-04-27T18:12:37.955Z,12.27
2023-04-27T18:15:11.398Z,12.50
2023-04-27T18:17:45.275Z,12.41
2023-04-27T18:20:18.337Z,12.29
2023-04-27T18:22:53.018Z,12.59
2023-04-27T18:25:26.633Z,12.72
2023-04-27T18:28:00.478Z,12.35
2023-04-27T18:30:33.566Z,11.91
2023-04-27T18:33:07.134Z,12.26
2023-04-27T18:35:40.138Z,12.66
2023-04-27T18:38:14.356Z,12.44
2023-04-27T18:40:47.253Z,12.13
2023-04-27T18:43:20.526Z,11.94
2023-04-27T18:45:53.749Z,12.16
2023-04-27T18:48:27.000Z,12.74
2023-04-27T18:51:00.296Z,12.67
2023-04-27T18:53:34.479Z,12.73
2023-04-27T18:56:08.896Z,12.59
2023-04-27T18:58:42.448Z,12.56
2023-04-27T19:01:19.567Z,12.29
2023-04-27T19:03:53.075Z,12.36
2023-04-27T19:06:26.530Z,12.38
2023-04-27T19:09:01.122Z,12.11
2023-04-27T19:11:34.456Z,12.11
2023-04-27T19:14:07.514Z,12.31
2023-04-27T19:16:40.924Z,12.55
2023-04-27T19:19:14.398Z,12.48
2023-04-27T19:21:48.017Z,11.80
2023-04-27T19:24:22.335Z,11.83
2023-04-27T19:26:56.017Z,11.97
2023-04-27T19:29:29.242Z,11.81
2023-04-27T19:32:02.385Z,11.76
2023-04-27T19:34:36.125Z,11.97
2023-04-27T19:37:09.343Z,11.81
2023-04-27T19:39:46.366Z,11.48
2023-04-27T19:42:19.569Z,11.70
2023-04-27T19:44:52.401Z,11.96
2023-04-27T19:47:27.652Z,11.44
2023-04-27T19:50:00.831Z,11.08
2023-04-27T19:52:33.726Z,11.47
2023-04-27T19:55:08.714Z,11.82
2023-04-27T19:57:41.735Z,11.29
2023-04-27T20:00:15.269Z,11.07
2023-04-27T20:02:48.874Z,11.02
2023-04-27T20:05:22.309Z,10.90
2023-04-27T20:07:55.535Z,11.16
2023-04-27T20:10:29.866Z,11.66
2023-04-27T20:13:02.967Z,11.46
2023-04-27T20:15:37.681Z,10.98
2023-04-27T20:18:11.491Z,11.12
2023-04-27T20:20:45.357Z,11.26
2023-04-27T20:23:18.218Z,10.95
2023-04-27T20:25:52.876Z,11.04
2023-04-27T20:28:25.851Z,11.05
2023-04-27T20:30:58.863Z,10.82
2023-04-27T20:33:32.164Z,11.14
2023-04-27T20:36:16.208Z,10.97
2023-04-27T20:38:49.861Z,10.79
2023-04-27T20:41:25.793Z,10.76
2023-04-27T20:44:00.282Z,10.94
2023-04-27T20:46:33.341Z,10.97
2023-04-27T20:49:06.447Z,10.67
2023-04-27T20:51:39.365Z,10.66
2023-04-27T20:54:12.921Z,10.69
2023-04-27T20:56:47.638Z,10.71
2023-04-27T20:59:20.649Z,10.58
2023-04-27T21:01:53.597Z,10.58
2023-04-27T21:04:26.597Z,10.60
2023-04-27T21:06:59.565Z,10.54
2023-04-27T21:09:32.505Z,10.48
2023-04-27T21:12:07.298Z,10.41
2023-04-27T21:14:40.592Z,10.24
2023-04-27T21:17:15.203Z,10.28
2023-04-27T21:19:48.024Z,10.51
2023-04-27T21:22:20.949Z,10.32
2023-04-27T21:24:53.761Z,10.36
2023-04-27T21:27:28.746Z,10.26
2023-04-27T21:30:03.440Z,10.34
2023-04-27T21:32:36.405Z,10.47
2023-04-27T21:35:10.110Z,10.24
2023-04-27T21:37:43.570Z,10.44
2023-04-27T21:40:16.458Z,10.23
2023-04-27T21:42:52.398Z,10.19
2023-04-27T21:45:25.707Z,10.40
2023-04-27T21:47:58.553Z,10.32
2023-04-27T21:50:31.621Z,10.24
2023-04-27T21:53:04.426Z,10.31
2023-04-27T21:55:37.367Z,10.20
2023-04-27T21:58:11.696Z,10.11
2023-04-27T22:00:45.418Z,10.12
2023-04-27T22:03:18.707Z,10.36
2023-04-27T22:05:52.908Z,10.12
2023-04-27T22:08:26.026Z,10.20
2023-04-27T22:10:58.999Z,10.03
2023-04-27T22:13:33.473Z,9.75
2023-04-27T22:16:06.722Z,9.60
2023-04-27T22:18:39.791Z,9.83
2023-04-27T22:21:13.719Z,9.71
2023-04-27T22:23:48.338Z,9.73
2023-04-27T22:26:21.241Z,9.94
2023-04-27T22:28:55.499Z,9.65
2023-04-27T22:31:28.607Z,9.68
2023-04-27T22:34:03.389Z,9.83
2023-04-27T22:36:36.197Z,9.73
2023-04-27T22:39:09.503Z,9.66
2023-04-27T22:41:42.583Z,9.72
2023-04-27T22:44:17.750Z,9.59
2023-04-27T22:46:50.998Z,9.64
2023-04-27T22:49:24.211Z,9.53
2023-04-27T22:51:57.767Z,9.51
2023-04-27T22:54:30.948Z,9.51
2023-04-27T22:57:04.477Z,9.41
2023-04-27T22:59:39.226Z,9.43
2023-04-27T23:02:12.221Z,9.04
2023-04-27T23:04:45.436Z,9.41
2023-04-27T23:07:18.526Z,9.34
2023-04-27T23:09:51.541Z,9.46
2023-04-27T23:12:27.014Z,9.46
2023-04-27T23:15:01.841Z,9.24
2023-04-27T23:17:34.729Z,9.44
2023-04-27T23:20:24.063Z,9.57
2023-04-27T23:22:57.508Z,9.45
2023-04-27T23:25:32.666Z,9.55
2023-04-27T23:28:05.484Z,9.34
2023-04-27T23:30:40.016Z,9.54
2023-04-27T23:33:13.035Z,9.83
2023-04-27T23:35:46.210Z,9.80
2023-04-27T23:38:19.341Z,9.95
2023-04-27T23:40:52.648Z,9.54
2023-04-27T23:43:25.549Z,9.55
2023-04-27T23:45:59.808Z,9.77
2023-04-27T23:48:32.729Z,9.42
2023-04-27T23:51:06.115Z,10.00
2023-04-27T23:53:39.517Z,9.57
2023-04-27T23:56:16.901Z,9.37
2023-04-27T23:58:49.778Z,9.84
